AirNav   Air Wisconsin Up To $57,000 Bonus
 
 500 users online  

17A Trigger Gap Airport
Berryville, Arkansas, USA

GOING TO BERRYVILLE?


FAA INFORMATION EFFECTIVE 10 OCTOBER 2019

Location

FAA Identifier: 17A
Lat/Long: 36-19-41.7000N 093-37-19.9700W
36-19.695000N 093-37.332833W
36.3282500,-93.6222139
(estimated)
Elevation: 1650 ft. / 503 m (estimated)
From city: 5 miles SW of BERRYVILLE, AR
Time zone: UTC -5 (UTC -6 during Standard Time)
Zip code: 72616

Airport Operations

Airport use: Open to the public
Activation date: 09/2017
Control tower: no
ARTCC: MEMPHIS CENTER
FSS: JONESBORO FLIGHT SERVICE STATION
NOTAMs facility: JBR (NOTAM-D service not available)
Attendance: UNATTND
Segmented circle: no

Airport Communications

CTAF: 122.9

Nearby radio navigation aids

VOR radial/distance  VOR name  Freq  Var
HROr268/19.8HARRISON VOR/DME112.5004E
RZCr075/24.6RAZORBACK VORTAC116.4004E

Airport Services

Runway Information

Runway 10/28

Dimensions: 3000 x 75 ft. / 914 x 23 m
Surface: turf
RUNWAY 10  RUNWAY 28
Latitude: 36-19.759667N36-19.630333N
Longitude: 093-37.627667W093-37.037833W
Elevation: 1608.0 ft.1650.0 ft.
Traffic pattern: rightright
Runway heading: 105 true285 true

Airport Ownership and Management from official FAA records

Ownership: Publicly-owned
Owner: RECREATIONAL AVIATION FOUNDATION
1711 W COLLEGE STREET
BOZEMAN, MT 59715
Phone 406-582-1723
Manager: CHAD COX
3404 CARDINAL LANE
BENTONVILLE, AR 72712
Phone 501-732-0658

Additional Remarks

FOR CD CTC RAZORBACK APCH 479-649-2416, WHEN APCH CLSD CTC MEMPHIS ARTCC AT 901-368-8453.

Instrument Procedures

There are no published instrument procedures at 17A.

Some nearby airports with instrument procedures:

4M1 - Carroll County Airport (3 nm N)
H34 - Huntsville Municipal Airport (16 nm SW)
KHRO - Boone County Airport (23 nm E)
KROG - Rogers Executive Airport - Carter Field (24 nm W)
KBBG - Branson Airport (24 nm NE)
 
Loc | Ops | Rwys | IFR | FBO | Links
Com | Nav | Svcs | Stats | Notes
Aerial photo
WARNING: Photo may not be current or correct
Aerial photo of 17A (Trigger Gap Airport)
Photo by JD Lawson
Photo taken 21-Jan-2017
looking southeast.

Do you have a better or more recent aerial photo of Trigger Gap Airport that you would like to share? If so, please send us your photo.

 
Airport distance calculator
Flying to Trigger Gap Airport? Find the distance to fly.

From to 17A

Sunrise and sunset
Times for 19-Oct-2019
 Local
(UTC-5)
 Zulu
(UTC)
Morning civil twilight07:0012:00
Sunrise07:2612:26
Sunset18:3323:33
Evening civil twilight18:5923:59

Current date and time
Zulu (UTC)  19-Oct-2019 11:32:04
Local (UTC-5)  19-Oct-2019 06:32:04
 
METAR
KROG 
22nm W 
191058Z AUTO 09005KT 10SM BKN110 12/09 A2978 RMK AO2 SLP075 T01170089
KHRO 
23nm E 
191053Z AUTO 00000KT 10SM CLR 08/06 A2980 RMK AO2 SLP087 T00780056
KBBG 
24nm NE 
191055Z AUTO 12003KT 10SM CLR 08/07 A2982 RMK AO2
KFWB 
25nm NE 
191115Z AUTO 09006KT 050V120 10SM FEW120 09/09 A2981 RMK AO2 P0002 PWINO PNO
KASG 
26nm W 
191048Z 12005KT 10SM SCT110 12/09 A2977
KVBT 
29nm W 
191056Z AUTO 00000KT 10SM BKN120 12/08 A2979 RMK AO2 SLP087 T01170078
KFYV 
32nm SW 
191053Z 17004KT 10SM CLR 13/08 A2976 RMK AO2 SLP069 T01280078
KXNA 
33nm W 
191053Z 35003KT 10SM BKN110 10/07 A2978 RMK AO2 SLP077 T01000072
KHFJ 
39nm NW 
191115Z AUTO 14004KT 10SM OVC110 10/07 A2978 RMK AO2
KSLG 
42nm W 
191056Z AUTO 13003KT 10SM SCT110 13/08 A2977 RMK AO2 SLP076 T01330078
TAF
KROG 
22nm W 
190520Z 1906/2006 14007KT P6SM SKC FM191200 14003KT P6SM VCSH BKN100 TEMPO 1912/1916 6SM -SHRA BKN050 FM191600 21005KT P6SM SCT100 FM191900 31005KT P6SM OVC045 FM200300 34005KT P6SM SCT040
KHRO 
23nm E 
190525Z 1906/2006 15009KT P6SM SKC FM191500 15006KT P6SM VCSH OVC050 FM192200 32007KT P6SM OVC050
KBBG 
24nm NE 
190520Z 1906/2006 14006KT P6SM SKC FM191300 15006KT P6SM OVC100 FM191700 16008KT P6SM VCSH OVC025 TEMPO 1918/1922 4SM -SHRA BR FM192200 32005KT P6SM OVC025 FM200100 VRB04KT P6SM OVC015
NOTAMs
Click for the latest NOTAMs
NOTAMs are issued by the DoD/FAA and will open in a separate window not controlled by AirNav.

 

 
 

Would you like to see your business listed on this page?

 If your business provides an interesting product or service to pilots, flight crews, aircraft, or users of the Trigger Gap Airport, you should consider listing it here.  To start the listing process, click on the button below
 
Add a business
 

Other Pages about Trigger Gap Airport

Update a link
 
Copyright © AirNav, LLC. All rights reserved. Privacy Policy  Contact